OIMB  Birjand  Airport

Birjand, Iran

Add Bookmark
ICAO OIMB
Type Airport
Status Operational
Latitude
32° 53' 53" N
32.898102
Longitude
59° 15' 57" E
59.266102
Local (DST + 5) UTC (GMT + 4)
May 28, 2015 12:15 May 28, 2015 07:45
Sunrise-Sunset Local UTC
Begin Civil Twilight 04:57 00:27
Sunrise 05:25 00:55
Sunset 07:35 15:05
End Civil Twilight 08:03 15:33
VFR
VFR
MVFR
MVFR
IFR
VFR
LIFR
VFR
Unknown
Unavailable

Current Weather

METAR Observed VFR
OIMB 280700Z 33014KT 9999 SCT035TCU 29/M02 Q1014 Thu, May 28, 2015 @ 07:00 UTC
(45 Minutes ago)
Visual Flight Rules
Wind Visibility Clouds Conditions
330° at 14 knots (26 kph) 10 km or more
  • Scattered at 3,500 ft AGL
  • No significant weather
Temperatures Readings Precipitation
Current Temp
29°C
84°F
Dewpoint
-2°C
28°F
Humidity 13%
Altimeter 29.94" Hg
Sea Level Pressure 1,014 mb
Field Elevation
1,491 m
4,892 ft
None Recorded
-
-

CheckWX.com is intended as a tool to help pilots better visualize weather data. It is not intended as a substitute for an official weather briefing obtained from a Flight Service Station. CheckWX.com does not meet the FAA requirements for an official pre-flight weather briefing. Therefore, it's important that pilots still call and obtain an official FSS pre-flight weather briefing.

© 2007-2015 CheckWX.com
07:45:42 UTC